sensor_id;sensor_type;location;lat;lon;timestamp;pressure;altitude;pressure_sealevel;temperature;humidity
15477;BME280;7840;42.702;23.296;2023-02-19T00:00:05;95371.19;;;5.85;91.84
15477;BME280;7840;42.702;23.296;2023-02-19T00:02:34;95372.31;;;6.02;90.24
15477;BME280;7840;42.702;23.296;2023-02-19T00:05:04;95375.63;;;5.84;91.55
15477;BME280;7840;42.702;23.296;2023-02-19T00:07:32;95362.88;;;5.94;91.11
15477;BME280;7840;42.702;23.296;2023-02-19T00:09:59;95381.28;;;5.94;91.03
15477;BME280;7840;42.702;23.296;2023-02-19T00:12:38;95362.28;;;5.92;91.84
15477;BME280;7840;42.702;23.296;2023-02-19T00:15:06;95351.25;;;6.09;91.04
15477;BME280;7840;42.702;23.296;2023-02-19T00:18:06;95357.03;;;5.86;92.71
15477;BME280;7840;42.702;23.296;2023-02-19T00:20:34;95349.94;;;5.93;92.38
15477;BME280;7840;42.702;23.296;2023-02-19T00:23:01;95357.03;;;5.92;92.30
15477;BME280;7840;42.702;23.296;2023-02-19T00:25:29;95350.50;;;6.01;92.38
15477;BME280;7840;42.702;23.296;2023-02-19T00:27:56;95347.84;;;6.01;91.69
15477;BME280;7840;42.702;23.296;2023-02-19T00:38:13;95336.00;;;5.92;93.79
15477;BME280;7840;42.702;23.296;2023-02-19T00:40:40;95342.84;;;5.93;93.55
15477;BME280;7840;42.702;23.296;2023-02-19T00:43:09;95342.06;;;5.93;93.50
15477;BME280;7840;42.702;23.296;2023-02-19T00:45:37;95324.03;;;5.90;93.28
15477;BME280;7840;42.702;23.296;2023-02-19T00:48:09;95323.72;;;5.73;95.54
15477;BME280;7840;42.702;23.296;2023-02-19T00:50:49;95303.22;;;5.88;94.69
15477;BME280;7840;42.702;23.296;2023-02-19T00:53:33;95293.09;;;5.98;92.94
15477;BME280;7840;42.702;23.296;2023-02-19T00:56:00;95313.72;;;5.88;93.06
15477;BME280;7840;42.702;23.296;2023-02-19T00:58:31;95317.81;;;5.91;93.41
15477;BME280;7840;42.702;23.296;2023-02-19T01:01:19;95306.81;;;6.00;93.01
15477;BME280;7840;42.702;23.296;2023-02-19T01:03:46;95324.03;;;5.90;94.39
15477;BME280;7840;42.702;23.296;2023-02-19T01:06:16;95320.25;;;5.79;94.78
15477;BME280;7840;42.702;23.296;2023-02-19T01:08:46;95322.63;;;5.87;94.88
15477;BME280;7840;42.702;23.296;2023-02-19T01:11:14;95321.81;;;5.87;94.59
15477;BME280;7840;42.702;23.296;2023-02-19T01:13:42;95328.19;;;5.66;97.78
15477;BME280;7840;42.702;23.296;2023-02-19T01:16:16;95315.91;;;5.60;98.45
15477;BME280;7840;42.702;23.296;2023-02-19T01:18:44;95320.66;;;5.76;97.69
15477;BME280;7840;42.702;23.296;2023-02-19T01:21:15;95320.25;;;5.79;96.20
15477;BME280;7840;42.702;23.296;2023-02-19T01:24:09;95301.63;;;5.81;95.27
15477;BME280;7840;42.702;23.296;2023-02-19T01:26:42;95313.72;;;5.95;92.97
15477;BME280;7840;42.702;23.296;2023-02-19T01:29:14;95325.47;;;5.92;91.29
15477;BME280;7840;42.702;23.296;2023-02-19T01:32:07;95327.09;;;5.93;91.51
15477;BME280;7840;42.702;23.296;2023-02-19T01:34:35;95323.53;;;6.13;90.15
15477;BME280;7840;42.702;23.296;2023-02-19T01:37:03;95319.22;;;6.25;88.21
15477;BME280;7840;42.702;23.296;2023-02-19T01:39:34;95333.34;;;6.24;87.71
15477;BME280;7840;42.702;23.296;2023-02-19T01:42:03;95339.78;;;5.96;88.82
15477;BME280;7840;42.702;23.296;2023-02-19T01:45:11;95351.16;;;5.90;90.22
15477;BME280;7840;42.702;23.296;2023-02-19T01:48:04;95362.34;;;5.72;92.52
15477;BME280;7840;42.702;23.296;2023-02-19T01:50:47;95356.03;;;5.80;92.67
15477;BME280;7840;42.702;23.296;2023-02-19T01:53:33;95357.88;;;5.73;93.47
15477;BME280;7840;42.702;23.296;2023-02-19T01:56:10;95361.47;;;5.85;92.05
15477;BME280;7840;42.702;23.296;2023-02-19T01:58:40;95356.22;;;5.92;91.41
15477;BME280;7840;42.702;23.296;2023-02-19T02:01:13;95356.00;;;5.87;91.83
15477;BME280;7840;42.702;23.296;2023-02-19T02:03:46;95357.53;;;5.63;93.86
15477;BME280;7840;42.702;23.296;2023-02-19T02:06:20;95360.91;;;5.76;93.05
15477;BME280;7840;42.702;23.296;2023-02-19T02:08:50;95370.00;;;5.74;93.50
15477;BME280;7840;42.702;23.296;2023-02-19T02:11:41;95365.00;;;5.66;93.79
15477;BME280;7840;42.702;23.296;2023-02-19T02:14:10;95356.56;;;5.51;96.65
15477;BME280;7840;42.702;23.296;2023-02-19T02:16:47;95362.06;;;5.42;97.48
15477;BME280;7840;42.702;23.296;2023-02-19T02:19:35;95357.16;;;5.53;96.44
15477;BME280;7840;42.702;23.296;2023-02-19T02:22:14;95357.66;;;5.23;99.34
15477;BME280;7840;42.702;23.296;2023-02-19T02:27:55;95355.75;;;5.50;97.24
15477;BME280;7840;42.702;23.296;2023-02-19T02:30:37;95350.13;;;5.40;98.72
15477;BME280;7840;42.702;23.296;2023-02-19T02:33:23;95360.38;;;5.55;97.49
15477;BME280;7840;42.702;23.296;2023-02-19T02:35:56;95362.41;;;5.53;97.06
15477;BME280;7840;42.702;23.296;2023-02-19T02:38:27;95366.84;;;5.59;97.02
15477;BME280;7840;42.702;23.296;2023-02-19T02:40:56;95368.06;;;5.63;96.34
15477;BME280;7840;42.702;23.296;2023-02-19T02:43:26;95375.03;;;5.24;99.34
15477;BME280;7840;42.702;23.296;2023-02-19T02:45:55;95366.69;;;5.40;100.00
15477;BME280;7840;42.702;23.296;2023-02-19T02:48:29;95374.16;;;5.43;98.30
15477;BME280;7840;42.702;23.296;2023-02-19T02:51:03;95372.38;;;5.31;100.00
15477;BME280;7840;42.702;23.296;2023-02-19T02:53:57;95376.59;;;5.38;98.85
15477;BME280;7840;42.702;23.296;2023-02-19T02:56:56;95365.28;;;5.44;98.40
15477;BME280;7840;42.702;23.296;2023-02-19T02:59:26;95364.06;;;5.40;98.80
15477;BME280;7840;42.702;23.296;2023-02-19T03:02:14;95370.16;;;5.21;100.00
15477;BME280;7840;42.702;23.296;2023-02-19T03:04:48;95365.91;;;5.33;100.00
15477;BME280;7840;42.702;23.296;2023-02-19T03:07:39;95363.75;;;5.04;100.00
15477;BME280;7840;42.702;23.296;2023-02-19T03:10:14;95371.44;;;4.79;100.00
15477;BME280;7840;42.702;23.296;2023-02-19T03:12:45;95369.81;;;4.98;100.00
15477;BME280;7840;42.702;23.296;2023-02-19T03:15:35;95359.31;;;4.98;100.00
15477;BME280;7840;42.702;23.296;2023-02-19T03:18:28;95363.78;;;4.71;100.00
15477;BME280;7840;42.702;23.296;2023-02-19T03:21:18;95371.22;;;4.80;100.00
15477;BME280;7840;42.702;23.296;2023-02-19T03:23:50;95376.09;;;4.83;100.00
15477;BME280;7840;42.702;23.296;2023-02-19T03:26:37;95390.81;;;4.91;100.00
15477;BME280;7840;42.702;23.296;2023-02-19T03:29:07;95392.03;;;5.02;100.00
15477;BME280;7840;42.702;23.296;2023-02-19T03:31:59;95387.59;;;5.09;100.00
15477;BME280;7840;42.702;23.296;2023-02-19T03:34:33;95396.06;;;5.11;100.00
15477;BME280;7840;42.702;23.296;2023-02-19T03:37:03;95400.09;;;5.07;100.00
15477;BME280;7840;42.702;23.296;2023-02-19T03:39:32;95405.75;;;5.04;100.00
15477;BME280;7840;42.702;23.296;2023-02-19T03:42:20;95405.34;;;5.07;100.00
15477;BME280;7840;42.702;23.296;2023-02-19T03:45:30;95414.44;;;5.11;100.00
15477;BME280;7840;42.702;23.296;2023-02-19T03:48:15;95401.69;;;5.08;100.00
15477;BME280;7840;42.702;23.296;2023-02-19T03:50:49;95412.59;;;5.18;100.00
15477;BME280;7840;42.702;23.296;2023-02-19T03:53:28;95403.31;;;5.22;100.00
15477;BME280;7840;42.702;23.296;2023-02-19T03:56:07;95415.22;;;5.18;100.00
15477;BME280;7840;42.702;23.296;2023-02-19T03:58:43;95415.44;;;5.10;100.00
15477;BME280;7840;42.702;23.296;2023-02-19T04:01:18;95419.09;;;5.09;100.00
15477;BME280;7840;42.702;23.296;2023-02-19T04:03:55;95417.03;;;5.24;100.00
15477;BME280;7840;42.702;23.296;2023-02-19T04:06:29;95416.00;;;5.38;98.96
15477;BME280;7840;42.702;23.296;2023-02-19T04:08:59;95422.81;;;5.66;96.58
15477;BME280;7840;42.702;23.296;2023-02-19T04:11:31;95418.66;;;5.96;92.80
15477;BME280;7840;42.702;23.296;2023-02-19T04:14:19;95407.78;;;6.31;89.63
15477;BME280;7840;42.702;23.296;2023-02-19T04:16:59;95418.56;;;6.54;87.67
15477;BME280;7840;42.702;23.296;2023-02-19T04:19:34;95423.25;;;6.77;86.33
15477;BME280;7840;42.702;23.296;2023-02-19T04:22:19;95423.06;;;7.04;84.29
15477;BME280;7840;42.702;23.296;2023-02-19T04:25:00;95416.19;;;7.28;82.68
15477;BME280;7840;42.702;23.296;2023-02-19T04:27:31;95424.84;;;7.53;80.84
15477;BME280;7840;42.702;23.296;2023-02-19T04:30:00;95424.53;;;7.61;79.79
15477;BME280;7840;42.702;23.296;2023-02-19T04:32:31;95417.66;;;7.60;79.31
15477;BME280;7840;42.702;23.296;2023-02-19T04:35:01;95415.03;;;7.60;79.76
15477;BME280;7840;42.702;23.296;2023-02-19T04:37:31;95427.47;;;7.53;80.08
15477;BME280;7840;42.702;23.296;2023-02-19T04:39:58;95432.50;;;7.55;79.62
15477;BME280;7840;42.702;23.296;2023-02-19T04:42:32;95424.69;;;7.48;80.49
15477;BME280;7840;42.702;23.296;2023-02-19T04:45:00;95425.66;;;7.72;79.74
15477;BME280;7840;42.702;23.296;2023-02-19T04:47:27;95431.16;;;7.71;79.65
15477;BME280;7840;42.702;23.296;2023-02-19T04:49:55;95437.88;;;7.85;79.45
15477;BME280;7840;42.702;23.296;2023-02-19T04:52:24;95429.59;;;8.00;78.42
15477;BME280;7840;42.702;23.296;2023-02-19T04:54:55;95430.47;;;8.12;77.58
15477;BME280;7840;42.702;23.296;2023-02-19T04:57:23;95425.53;;;8.15;77.26
15477;BME280;7840;42.702;23.296;2023-02-19T04:59:51;95430.91;;;8.09;76.71
15477;BME280;7840;42.702;23.296;2023-02-19T05:02:20;95438.78;;;7.97;77.12
15477;BME280;7840;42.702;23.296;2023-02-19T05:04:52;95440.88;;;7.88;76.39
15477;BME280;7840;42.702;23.296;2023-02-19T05:07:26;95437.16;;;7.78;76.03
15477;BME280;7840;42.702;23.296;2023-02-19T05:09:56;95431.44;;;7.62;76.14
15477;BME280;7840;42.702;23.296;2023-02-19T05:12:30;95434.34;;;7.54;76.53
15477;BME280;7840;42.702;23.296;2023-02-19T05:14:58;95443.34;;;7.47;76.59
15477;BME280;7840;42.702;23.296;2023-02-19T05:17:29;95442.94;;;7.50;76.67
15477;BME280;7840;42.702;23.296;2023-02-19T05:20:04;95449.41;;;7.47;76.39
15477;BME280;7840;42.702;23.296;2023-02-19T05:22:32;95450.66;;;7.45;76.19
15477;BME280;7840;42.702;23.296;2023-02-19T05:25:17;95436.41;;;7.52;76.19
15477;BME280;7840;42.702;23.296;2023-02-19T05:27:55;95448.19;;;7.50;75.44
15477;BME280;7840;42.702;23.296;2023-02-19T05:30:42;95453.53;;;7.43;75.95
15477;BME280;7840;42.702;23.296;2023-02-19T05:33:10;95455.50;;;7.48;75.65
15477;BME280;7840;42.702;23.296;2023-02-19T05:35:46;95457.56;;;7.46;75.39
15477;BME280;7840;42.702;23.296;2023-02-19T05:38:27;95476.09;;;7.57;75.41
15477;BME280;7840;42.702;23.296;2023-02-19T05:41:06;95466.66;;;7.68;75.26
15477;BME280;7840;42.702;23.296;2023-02-19T05:43:36;95457.72;;;7.87;74.92
15477;BME280;7840;42.702;23.296;2023-02-19T05:46:06;95466.59;;;7.93;74.10
15477;BME280;7840;42.702;23.296;2023-02-19T05:48:34;95464.94;;;8.17;73.43
15477;BME280;7840;42.702;23.296;2023-02-19T05:51:13;95460.72;;;8.46;72.24
15477;BME280;7840;42.702;23.296;2023-02-19T05:54:14;95471.81;;;8.66;71.12
15477;BME280;7840;42.702;23.296;2023-02-19T05:56:42;95472.53;;;8.73;71.33
15477;BME280;7840;42.702;23.296;2023-02-19T05:59:15;95484.56;;;8.69;71.34
15477;BME280;7840;42.702;23.296;2023-02-19T06:01:44;95488.81;;;8.70;71.52
15477;BME280;7840;42.702;23.296;2023-02-19T06:04:13;95490.19;;;8.43;72.25
15477;BME280;7840;42.702;23.296;2023-02-19T06:06:46;95494.44;;;8.26;73.38
15477;BME280;7840;42.702;23.296;2023-02-19T06:14:30;95503.66;;;8.16;75.24
15477;BME280;7840;42.702;23.296;2023-02-19T06:17:28;95507.56;;;8.14;74.32
15477;BME280;7840;42.702;23.296;2023-02-19T06:20:16;95514.41;;;8.03;74.46
15477;BME280;7840;42.702;23.296;2023-02-19T06:22:55;95511.16;;;8.01;74.82
15477;BME280;7840;42.702;23.296;2023-02-19T06:25:37;95505.22;;;8.06;74.83
15477;BME280;7840;42.702;23.296;2023-02-19T06:28:17;95515.25;;;8.15;74.91
15477;BME280;7840;42.702;23.296;2023-02-19T06:31:01;95509.81;;;8.29;74.42
15477;BME280;7840;42.702;23.296;2023-02-19T06:33:46;95514.63;;;8.38;74.01
15477;BME280;7840;42.702;23.296;2023-02-19T06:36:17;95514.41;;;8.40;74.08
15477;BME280;7840;42.702;23.296;2023-02-19T06:38:59;95516.00;;;8.41;72.95
15477;BME280;7840;42.702;23.296;2023-02-19T06:41:32;95517.03;;;8.40;73.31
15477;BME280;7840;42.702;23.296;2023-02-19T06:44:31;95514.97;;;8.42;73.17
15477;BME280;7840;42.702;23.296;2023-02-19T06:47:00;95519.69;;;8.40;73.04
15477;BME280;7840;42.702;23.296;2023-02-19T06:49:50;95523.06;;;8.47;72.46
15477;BME280;7840;42.702;23.296;2023-02-19T06:52:17;95517.03;;;8.58;72.05
15477;BME280;7840;42.702;23.296;2023-02-19T06:54:48;95517.28;;;8.68;71.73
15477;BME280;7840;42.702;23.296;2023-02-19T06:57:32;95526.50;;;8.77;71.34
15477;BME280;7840;42.702;23.296;2023-02-19T06:59:59;95530.09;;;8.83;70.88
15477;BME280;7840;42.702;23.296;2023-02-19T07:02:35;95528.63;;;8.87;71.25
15477;BME280;7840;42.702;23.296;2023-02-19T07:05:34;95536.56;;;8.99;71.16
15477;BME280;7840;42.702;23.296;2023-02-19T07:08:05;95537.44;;;9.11;70.30
15477;BME280;7840;42.702;23.296;2023-02-19T07:10:56;95531.81;;;9.19;70.15
15477;BME280;7840;42.702;23.296;2023-02-19T07:13:31;95529.22;;;9.31;70.00
15477;BME280;7840;42.702;23.296;2023-02-19T07:15:59;95527.03;;;9.40;69.64
15477;BME280;7840;42.702;23.296;2023-02-19T07:18:31;95524.50;;;9.45;69.60
15477;BME280;7840;42.702;23.296;2023-02-19T07:21:02;95519.94;;;9.52;69.50
15477;BME280;7840;42.702;23.296;2023-02-19T07:23:29;95514.53;;;9.58;68.88
15477;BME280;7840;42.702;23.296;2023-02-19T07:26:02;95515.59;;;9.69;68.80
15477;BME280;7840;42.702;23.296;2023-02-19T07:31:39;95509.91;;;10.01;67.79
15477;BME280;7840;42.702;23.296;2023-02-19T07:34:27;95498.53;;;10.24;67.32
15477;BME280;7840;42.702;23.296;2023-02-19T07:37:09;95493.69;;;10.32;66.89
15477;BME280;7840;42.702;23.296;2023-02-19T07:42:37;95498.22;;;10.49;66.84
15477;BME280;7840;42.702;23.296;2023-02-19T07:45:05;95499.38;;;10.53;66.77
15477;BME280;7840;42.702;23.296;2023-02-19T07:47:46;95488.03;;;10.69;66.70
15477;BME280;7840;42.702;23.296;2023-02-19T07:50:18;95486.47;;;10.85;66.62
15477;BME280;7840;42.702;23.296;2023-02-19T07:53:01;95482.63;;;10.92;65.78
15477;BME280;7840;42.702;23.296;2023-02-19T07:55:31;95484.09;;;11.17;65.29
15477;BME280;7840;42.702;23.296;2023-02-19T07:57:59;95481.44;;;11.17;64.56
15477;BME280;7840;42.702;23.296;2023-02-19T08:00:33;95480.13;;;11.48;64.51
15477;BME280;7840;42.702;23.296;2023-02-19T08:03:01;95494.41;;;11.64;63.15
15477;BME280;7840;42.702;23.296;2023-02-19T08:05:53;95484.66;;;11.86;61.63
15477;BME280;7840;42.702;23.296;2023-02-19T08:08:22;95484.13;;;11.84;60.96
15477;BME280;7840;42.702;23.296;2023-02-19T08:10:50;95483.97;;;12.13;60.16
15477;BME280;7840;42.702;23.296;2023-02-19T08:13:34;95483.56;;;12.43;59.04
15477;BME280;7840;42.702;23.296;2023-02-19T08:16:11;95479.09;;;12.48;57.87
15477;BME280;7840;42.702;23.296;2023-02-19T08:18:43;95470.00;;;12.66;58.04
15477;BME280;7840;42.702;23.296;2023-02-19T08:21:26;95475.06;;;12.68;56.92
15477;BME280;7840;42.702;23.296;2023-02-19T08:23:54;95480.44;;;12.73;56.83
15477;BME280;7840;42.702;23.296;2023-02-19T08:29:22;95479.94;;;12.76;56.02
15477;BME280;7840;42.702;23.296;2023-02-19T08:31:58;95480.25;;;13.06;54.74
15477;BME280;7840;42.702;23.296;2023-02-19T08:34:26;95481.44;;;13.48;53.72
15477;BME280;7840;42.702;23.296;2023-02-19T08:36:58;95467.28;;;13.42;53.51
15477;BME280;7840;42.702;23.296;2023-02-19T08:39:34;95482.78;;;13.50;53.03
15477;BME280;7840;42.702;23.296;2023-02-19T08:44:50;95472.50;;;14.01;52.32
15477;BME280;7840;42.702;23.296;2023-02-19T08:47:20;95477.38;;;14.14;51.53
15477;BME280;7840;42.702;23.296;2023-02-19T08:49:51;95467.59;;;14.40;51.00
15477;BME280;7840;42.702;23.296;2023-02-19T08:52:53;95459.44;;;14.52;50.74
15477;BME280;7840;42.702;23.296;2023-02-19T08:55:39;95458.38;;;14.48;50.77
15477;BME280;7840;42.702;23.296;2023-02-19T08:58:10;95454.91;;;14.53;50.57
15477;BME280;7840;42.702;23.296;2023-02-19T09:00:39;95450.97;;;14.70;50.03
15477;BME280;7840;42.702;23.296;2023-02-19T09:03:11;95443.47;;;14.62;49.08
15477;BME280;7840;42.702;23.296;2023-02-19T09:08:24;95454.91;;;14.53;51.68
15477;BME280;7840;42.702;23.296;2023-02-19T09:11:04;95431.09;;;14.36;51.68
15477;BME280;7840;42.702;23.296;2023-02-19T09:13:43;95426.94;;;14.60;51.62
15477;BME280;7840;42.702;23.296;2023-02-19T09:16:11;95421.66;;;14.75;50.60
15477;BME280;7840;42.702;23.296;2023-02-19T09:18:38;95409.13;;;14.91;50.04
15477;BME280;7840;42.702;23.296;2023-02-19T09:21:07;95420.06;;;14.85;49.84
15477;BME280;7840;42.702;23.296;2023-02-19T09:23:36;95420.59;;;14.92;50.04
15477;BME280;7840;42.702;23.296;2023-02-19T09:26:13;95436.06;;;14.95;50.14
15477;BME280;7840;42.702;23.296;2023-02-19T09:28:45;95422.22;;;15.13;49.99
15477;BME280;7840;42.702;23.296;2023-02-19T09:31:15;95420.06;;;14.95;50.49
15477;BME280;7840;42.702;23.296;2023-02-19T09:33:43;95411.03;;;15.31;50.13
15477;BME280;7840;42.702;23.296;2023-02-19T09:36:11;95414.75;;;15.05;49.92
15477;BME280;7840;42.702;23.296;2023-02-19T09:38:54;95419.00;;;14.96;50.66
15477;BME280;7840;42.702;23.296;2023-02-19T09:41:29;95415.22;;;14.71;50.77
15477;BME280;7840;42.702;23.296;2023-02-19T09:44:05;95417.41;;;14.90;50.53
15477;BME280;7840;42.702;23.296;2023-02-19T09:46:42;95406.72;;;15.41;49.32
15477;BME280;7840;42.702;23.296;2023-02-19T09:49:16;95419.53;;;15.28;49.70
15477;BME280;7840;42.702;23.296;2023-02-19T09:51:51;95403.56;;;15.03;49.84
15477;BME280;7840;42.702;23.296;2023-02-19T09:54:25;95410.19;;;15.36;49.46
15477;BME280;7840;42.702;23.296;2023-02-19T09:56:54;95411.28;;;15.45;48.13
15477;BME280;7840;42.702;23.296;2023-02-19T09:59:24;95385.41;;;15.30;49.01
15477;BME280;7840;42.702;23.296;2023-02-19T10:02:26;95378.97;;;15.47;48.41
15477;BME280;7840;42.702;23.296;2023-02-19T10:04:57;95380.84;;;15.51;48.08
15477;BME280;7840;42.702;23.296;2023-02-19T10:07:34;95359.72;;;15.70;47.99
15477;BME280;7840;42.702;23.296;2023-02-19T10:10:28;95373.81;;;15.91;45.16
15477;BME280;7840;42.702;23.296;2023-02-19T10:13:10;95357.09;;;15.65;45.37
15477;BME280;7840;42.702;23.296;2023-02-19T10:15:44;95349.09;;;15.29;46.13
15477;BME280;7840;42.702;23.296;2023-02-19T10:18:16;95350.13;;;15.44;46.00
15477;BME280;7840;42.702;23.296;2023-02-19T10:20:45;95339.44;;;15.69;45.47
15477;BME280;7840;42.702;23.296;2023-02-19T10:23:27;95334.69;;;15.30;45.88
15477;BME280;7840;42.702;23.296;2023-02-19T10:29:19;95320.63;;;16.00;45.21
15477;BME280;7840;42.702;23.296;2023-02-19T10:32:18;95318.56;;;15.76;44.60
15477;BME280;7840;42.702;23.296;2023-02-19T10:35:07;95310.03;;;15.79;44.73
15477;BME280;7840;42.702;23.296;2023-02-19T10:37:54;95304.56;;;16.05;44.42
15477;BME280;7840;42.702;23.296;2023-02-19T10:40:47;95298.69;;;16.08;43.85
15477;BME280;7840;42.702;23.296;2023-02-19T10:43:41;95297.91;;;15.97;44.12
15477;BME280;7840;42.702;23.296;2023-02-19T10:46:17;95267.63;;;16.12;43.81
15477;BME280;7840;42.702;23.296;2023-02-19T10:48:52;95272.34;;;16.30;43.74
15477;BME280;7840;42.702;23.296;2023-02-19T10:51:20;95271.22;;;16.41;43.69
15477;BME280;7840;42.702;23.296;2023-02-19T10:54:18;95278.78;;;16.29;43.05
15477;BME280;7840;42.702;23.296;2023-02-19T10:57:26;95266.00;;;16.21;43.57
15477;BME280;7840;42.702;23.296;2023-02-19T11:00:00;95260.94;;;16.20;43.61
15477;BME280;7840;42.702;23.296;2023-02-19T11:02:49;95253.94;;;16.24;43.30
15477;BME280;7840;42.702;23.296;2023-02-19T11:05:38;95245.81;;;16.39;42.90
15477;BME280;7840;42.702;23.296;2023-02-19T11:08:50;95242.16;;;16.30;42.76
15477;BME280;7840;42.702;23.296;2023-02-19T11:11:31;95235.28;;;16.53;42.73
15477;BME280;7840;42.702;23.296;2023-02-19T11:14:03;95216.53;;;16.58;42.28
15477;BME280;7840;42.702;23.296;2023-02-19T11:16:40;95216.94;;;16.41;42.66
15477;BME280;7840;42.702;23.296;2023-02-19T11:19:34;95217.31;;;16.58;42.40
15477;BME280;7840;42.702;23.296;2023-02-19T11:22:32;95216.63;;;16.82;41.99
15477;BME280;7840;42.702;23.296;2023-02-19T11:25:03;95197.75;;;16.97;41.78
15477;BME280;7840;42.702;23.296;2023-02-19T11:27:32;95196.94;;;17.20;41.06
15477;BME280;7840;42.702;23.296;2023-02-19T11:36:47;95170.72;;;17.41;39.92
15477;BME280;7840;42.702;23.296;2023-02-19T11:39:28;95171.78;;;17.45;39.43
15477;BME280;7840;42.702;23.296;2023-02-19T11:45:28;95158.91;;;18.04;38.92
15477;BME280;7840;42.702;23.296;2023-02-19T11:48:26;95153.97;;;18.30;37.57
15477;BME280;7840;42.702;23.296;2023-02-19T11:51:14;95147.50;;;18.31;37.55
15477;BME280;7840;42.702;23.296;2023-02-19T11:54:03;95160.34;;;18.34;37.41
15477;BME280;7840;42.702;23.296;2023-02-19T11:56:39;95141.66;;;18.29;37.26
15477;BME280;7840;42.702;23.296;2023-02-19T11:59:18;95144.31;;;18.48;36.83
15477;BME280;7840;42.702;23.296;2023-02-19T12:02:16;95143.69;;;18.51;36.86
15477;BME280;7840;42.702;23.296;2023-02-19T12:05:18;95143.41;;;18.20;37.20
15477;BME280;7840;42.702;23.296;2023-02-19T12:11:25;95130.78;;;18.39;36.58
15477;BME280;7840;42.702;23.296;2023-02-19T12:14:36;95118.56;;;18.47;36.58
15477;BME280;7840;42.702;23.296;2023-02-19T12:17:14;95117.56;;;19.03;35.79
15477;BME280;7840;42.702;23.296;2023-02-19T12:19:53;95112.78;;;19.27;34.90
15477;BME280;7840;42.702;23.296;2023-02-19T12:22:36;95108.06;;;19.60;34.52
15477;BME280;7840;42.702;23.296;2023-02-19T12:25:29;95100.00;;;19.60;34.42
15477;BME280;7840;42.702;23.296;2023-02-19T12:28:33;95097.03;;;19.98;33.70
15477;BME280;7840;42.702;23.296;2023-02-19T12:31:27;95087.38;;;19.97;33.01
15477;BME280;7840;42.702;23.296;2023-02-19T12:34:29;95078.78;;;19.95;33.16
15477;BME280;7840;42.702;23.296;2023-02-19T12:37:24;95066.34;;;19.77;33.70
15477;BME280;7840;42.702;23.296;2023-02-19T12:40:14;95062.63;;;20.17;32.99
15477;BME280;7840;42.702;23.296;2023-02-19T12:45:34;95050.13;;;20.66;32.25
15477;BME280;7840;42.702;23.296;2023-02-19T12:48:08;95054.97;;;20.25;32.50
15477;BME280;7840;42.702;23.296;2023-02-19T12:50:39;95040.16;;;20.13;32.84
15477;BME280;7840;42.702;23.296;2023-02-19T12:53:14;95037.34;;;19.96;32.89
15477;BME280;7840;42.702;23.296;2023-02-19T12:55:44;95025.84;;;20.27;32.78
15477;BME280;7840;42.702;23.296;2023-02-19T12:58:18;95024.19;;;20.79;32.31
15477;BME280;7840;42.702;23.296;2023-02-19T13:07:25;95007.53;;;21.60;30.38
15477;BME280;7840;42.702;23.296;2023-02-19T13:10:24;95007.72;;;21.46;30.88
15477;BME280;7840;42.702;23.296;2023-02-19T13:13:09;95005.81;;;21.73;30.28
15477;BME280;7840;42.702;23.296;2023-02-19T13:15:40;95000.91;;;21.57;30.53
15477;BME280;7840;42.702;23.296;2023-02-19T13:18:36;94989.47;;;21.52;30.64
15477;BME280;7840;42.702;23.296;2023-02-19T13:21:07;95003.44;;;21.71;30.18
15477;BME280;7840;42.702;23.296;2023-02-19T13:23:47;94978.97;;;21.24;31.02
15477;BME280;7840;42.702;23.296;2023-02-19T13:29:44;94972.19;;;21.44;30.74
15477;BME280;7840;42.702;23.296;2023-02-19T13:32:36;94969.19;;;21.63;30.68
15477;BME280;7840;42.702;23.296;2023-02-19T13:35:34;94970.72;;;21.81;30.06
15477;BME280;7840;42.702;23.296;2023-02-19T13:38:10;94952.38;;;22.69;29.28
15477;BME280;7840;42.702;23.296;2023-02-19T13:41:02;94961.78;;;22.24;29.31
15477;BME280;7840;42.702;23.296;2023-02-19T13:43:35;94962.28;;;22.18;29.46
15477;BME280;7840;42.702;23.296;2023-02-19T13:46:06;94951.63;;;22.21;29.35
15477;BME280;7840;42.702;23.296;2023-02-19T13:48:36;94945.81;;;22.49;28.92
15477;BME280;7840;42.702;23.296;2023-02-19T13:51:47;94943.22;;;22.61;29.19
15477;BME280;7840;42.702;23.296;2023-02-19T13:54:36;94968.53;;;21.66;30.26
15477;BME280;7840;42.702;23.296;2023-02-19T13:57:34;94963.09;;;21.06;30.64
15477;BME280;7840;42.702;23.296;2023-02-19T14:00:46;94943.56;;;20.26;32.05
15477;BME280;7840;42.702;23.296;2023-02-19T14:06:28;94935.75;;;20.15;32.36
15477;BME280;7840;42.702;23.296;2023-02-19T14:09:36;94939.25;;;20.47;32.07
15477;BME280;7840;42.702;23.296;2023-02-19T14:12:08;94927.44;;;20.26;32.25
15477;BME280;7840;42.702;23.296;2023-02-19T14:14:47;94935.19;;;19.96;32.49
15477;BME280;7840;42.702;23.296;2023-02-19T14:17:36;94932.97;;;19.67;32.79
15477;BME280;7840;42.702;23.296;2023-02-19T14:20:40;94924.31;;;20.41;32.56
15477;BME280;7840;42.702;23.296;2023-02-19T14:23:16;94912.09;;;21.52;30.88
15477;BME280;7840;42.702;23.296;2023-02-19T14:25:53;94924.19;;;22.78;29.64
15477;BME280;7840;42.702;23.296;2023-02-19T14:28:34;94904.38;;;24.61;27.73
15477;BME280;7840;42.702;23.296;2023-02-19T14:31:28;94898.06;;;27.04;25.64
15477;BME280;7840;42.702;23.296;2023-02-19T14:33:59;94893.50;;;28.27;23.98
15477;BME280;7840;42.702;23.296;2023-02-19T14:36:36;94903.47;;;28.20;23.67
15477;BME280;7840;42.702;23.296;2023-02-19T14:39:11;94904.69;;;28.42;23.28
15477;BME280;7840;42.702;23.296;2023-02-19T14:41:43;94896.34;;;28.12;23.63
15477;BME280;7840;42.702;23.296;2023-02-19T14:44:16;94888.66;;;27.36;23.65
15477;BME280;7840;42.702;23.296;2023-02-19T14:46:54;94889.59;;;27.24;24.41
15477;BME280;7840;42.702;23.296;2023-02-19T14:49:35;94894.34;;;27.27;24.36
15477;BME280;7840;42.702;23.296;2023-02-19T14:52:14;94888.16;;;27.50;23.94
15477;BME280;7840;42.702;23.296;2023-02-19T14:54:59;94878.13;;;28.16;23.53
15477;BME280;7840;42.702;23.296;2023-02-19T14:57:29;94879.72;;;28.40;23.25
15477;BME280;7840;42.702;23.296;2023-02-19T15:00:00;94872.78;;;28.42;22.81
15477;BME280;7840;42.702;23.296;2023-02-19T15:02:31;94871.34;;;28.29;22.99
15477;BME280;7840;42.702;23.296;2023-02-19T15:04:59;94876.59;;;26.00;25.96